sensor_id;sensor_type;location;lat;lon;timestamp;pressure;altitude;pressure_sealevel;temperature;humidity
13800;BME280;6971;50.028;9.258;2023-08-20T00:01:56;99789.19;;;19.95;100.00
13800;BME280;6971;50.028;9.258;2023-08-20T00:06:58;99776.41;;;19.99;100.00
13800;BME280;6971;50.028;9.258;2023-08-20T00:11:59;99775.94;;;19.93;100.00
13800;BME280;6971;50.028;9.258;2023-08-20T00:17:00;99779.00;;;19.89;100.00
13800;BME280;6971;50.028;9.258;2023-08-20T00:22:01;99782.94;;;19.85;100.00
13800;BME280;6971;50.028;9.258;2023-08-20T00:27:02;99780.13;;;19.86;100.00
13800;BME280;6971;50.028;9.258;2023-08-20T00:32:04;99780.81;;;19.78;100.00
13800;BME280;6971;50.028;9.258;2023-08-20T00:37:05;99781.19;;;19.74;100.00
13800;BME280;6971;50.028;9.258;2023-08-20T00:42:06;99783.88;;;19.74;100.00
13800;BME280;6971;50.028;9.258;2023-08-20T00:47:08;99788.78;;;19.68;100.00
13800;BME280;6971;50.028;9.258;2023-08-20T00:52:11;99795.81;;;19.69;100.00
13800;BME280;6971;50.028;9.258;2023-08-20T00:57:14;99798.03;;;19.64;100.00
13800;BME280;6971;50.028;9.258;2023-08-20T01:02:18;99792.69;;;19.64;100.00
13800;BME280;6971;50.028;9.258;2023-08-20T01:12:46;99793.81;;;19.62;100.00
13800;BME280;6971;50.028;9.258;2023-08-20T01:17:48;99793.22;;;19.58;100.00
13800;BME280;6971;50.028;9.258;2023-08-20T01:28:24;99790.63;;;19.47;100.00
13800;BME280;6971;50.028;9.258;2023-08-20T01:33:26;99798.78;;;19.45;100.00
13800;BME280;6971;50.028;9.258;2023-08-20T01:38:27;99801.13;;;19.38;100.00
13800;BME280;6971;50.028;9.258;2023-08-20T01:43:28;99806.63;;;19.37;100.00
13800;BME280;6971;50.028;9.258;2023-08-20T01:48:29;99793.63;;;19.32;100.00
13800;BME280;6971;50.028;9.258;2023-08-20T01:53:30;99800.22;;;19.28;100.00
13800;BME280;6971;50.028;9.258;2023-08-20T01:58:31;99799.69;;;19.13;100.00
13800;BME280;6971;50.028;9.258;2023-08-20T02:03:36;99792.34;;;19.05;100.00
13800;BME280;6971;50.028;9.258;2023-08-20T02:08:38;99793.41;;;19.02;100.00
13800;BME280;6971;50.028;9.258;2023-08-20T02:13:39;99792.94;;;18.97;100.00
13800;BME280;6971;50.028;9.258;2023-08-20T02:18:40;99796.44;;;18.98;100.00
13800;BME280;6971;50.028;9.258;2023-08-20T02:23:41;99793.56;;;18.89;100.00
13800;BME280;6971;50.028;9.258;2023-08-20T02:28:42;99795.78;;;18.84;100.00
13800;BME280;6971;50.028;9.258;2023-08-20T02:33:43;99797.28;;;18.77;100.00
13800;BME280;6971;50.028;9.258;2023-08-20T02:38:45;99803.34;;;18.68;100.00
13800;BME280;6971;50.028;9.258;2023-08-20T02:43:47;99793.44;;;18.58;100.00
13800;BME280;6971;50.028;9.258;2023-08-20T02:48:47;99795.28;;;18.58;100.00
13800;BME280;6971;50.028;9.258;2023-08-20T02:53:49;99797.34;;;18.54;100.00
13800;BME280;6971;50.028;9.258;2023-08-20T02:58:50;99794.44;;;18.57;100.00
13800;BME280;6971;50.028;9.258;2023-08-20T03:03:51;99795.78;;;18.51;100.00
13800;BME280;6971;50.028;9.258;2023-08-20T03:08:52;99801.72;;;18.55;100.00
13800;BME280;6971;50.028;9.258;2023-08-20T03:13:53;99801.84;;;18.53;100.00
13800;BME280;6971;50.028;9.258;2023-08-20T03:18:57;99799.81;;;18.46;100.00
13800;BME280;6971;50.028;9.258;2023-08-20T03:24:11;99793.75;;;18.44;100.00
13800;BME280;6971;50.028;9.258;2023-08-20T03:29:12;99792.78;;;18.33;100.00
13800;BME280;6971;50.028;9.258;2023-08-20T03:34:13;99804.81;;;18.27;100.00
13800;BME280;6971;50.028;9.258;2023-08-20T03:39:14;99806.63;;;18.27;100.00
13800;BME280;6971;50.028;9.258;2023-08-20T03:44:15;99806.66;;;18.16;100.00
13800;BME280;6971;50.028;9.258;2023-08-20T03:49:16;99798.88;;;18.12;100.00
13800;BME280;6971;50.028;9.258;2023-08-20T03:54:16;99795.34;;;18.12;100.00
13800;BME280;6971;50.028;9.258;2023-08-20T03:59:18;99797.66;;;18.17;100.00
13800;BME280;6971;50.028;9.258;2023-08-20T04:04:20;99793.28;;;18.04;100.00
13800;BME280;6971;50.028;9.258;2023-08-20T04:09:22;99798.03;;;18.00;100.00
13800;BME280;6971;50.028;9.258;2023-08-20T04:14:22;99792.09;;;17.97;100.00
13800;BME280;6971;50.028;9.258;2023-08-20T04:19:23;99794.50;;;18.00;100.00
13800;BME280;6971;50.028;9.258;2023-08-20T04:24:23;99805.41;;;17.85;100.00
13800;BME280;6971;50.028;9.258;2023-08-20T04:29:24;99801.16;;;17.83;100.00
13800;BME280;6971;50.028;9.258;2023-08-20T04:34:24;99807.22;;;17.73;100.00
13800;BME280;6971;50.028;9.258;2023-08-20T04:39:25;99803.09;;;17.81;100.00
13800;BME280;6971;50.028;9.258;2023-08-20T04:44:26;99823.47;;;17.82;100.00
13800;BME280;6971;50.028;9.258;2023-08-20T04:49:27;99820.66;;;17.83;100.00
13800;BME280;6971;50.028;9.258;2023-08-20T04:54:29;99829.03;;;17.79;100.00
13800;BME280;6971;50.028;9.258;2023-08-20T04:59:29;99822.97;;;17.77;100.00
13800;BME280;6971;50.028;9.258;2023-08-20T05:04:30;99837.63;;;17.82;100.00
13800;BME280;6971;50.028;9.258;2023-08-20T05:09:30;99847.69;;;17.79;100.00
13800;BME280;6971;50.028;9.258;2023-08-20T05:14:31;99852.06;;;17.80;100.00
13800;BME280;6971;50.028;9.258;2023-08-20T05:19:31;99840.28;;;17.82;100.00
13800;BME280;6971;50.028;9.258;2023-08-20T05:24:33;99846.38;;;17.84;100.00
13800;BME280;6971;50.028;9.258;2023-08-20T05:29:33;99847.56;;;17.80;100.00
13800;BME280;6971;50.028;9.258;2023-08-20T05:34:34;99859.22;;;17.91;100.00
13800;BME280;6971;50.028;9.258;2023-08-20T05:39:42;99855.81;;;18.00;100.00
13800;BME280;6971;50.028;9.258;2023-08-20T05:44:44;99859.47;;;17.99;100.00
13800;BME280;6971;50.028;9.258;2023-08-20T05:49:44;99863.47;;;18.05;100.00
13800;BME280;6971;50.028;9.258;2023-08-20T05:54:45;99873.66;;;18.11;100.00
13800;BME280;6971;50.028;9.258;2023-08-20T05:59:45;99871.84;;;18.23;100.00
13800;BME280;6971;50.028;9.258;2023-08-20T06:04:46;99873.06;;;18.30;100.00
13800;BME280;6971;50.028;9.258;2023-08-20T06:09:46;99870.41;;;18.30;100.00
13800;BME280;6971;50.028;9.258;2023-08-20T06:14:47;99867.47;;;18.45;100.00
13800;BME280;6971;50.028;9.258;2023-08-20T06:19:48;99867.69;;;18.64;100.00
13800;BME280;6971;50.028;9.258;2023-08-20T06:24:48;99876.69;;;18.63;100.00
13800;BME280;6971;50.028;9.258;2023-08-20T06:29:49;99888.66;;;18.81;100.00
13800;BME280;6971;50.028;9.258;2023-08-20T06:34:49;99890.03;;;19.19;100.00
13800;BME280;6971;50.028;9.258;2023-08-20T06:39:50;99886.25;;;19.43;100.00
13800;BME280;6971;50.028;9.258;2023-08-20T06:44:50;99890.44;;;19.57;100.00
13800;BME280;6971;50.028;9.258;2023-08-20T06:49:51;99896.16;;;19.74;100.00
13800;BME280;6971;50.028;9.258;2023-08-20T06:54:52;99901.19;;;19.88;100.00
13800;BME280;6971;50.028;9.258;2023-08-20T06:59:53;99895.84;;;19.88;100.00
13800;BME280;6971;50.028;9.258;2023-08-20T07:04:53;99903.19;;;19.96;100.00
13800;BME280;6971;50.028;9.258;2023-08-20T07:09:53;99898.94;;;20.15;100.00
13800;BME280;6971;50.028;9.258;2023-08-20T07:14:54;99903.94;;;20.29;100.00
13800;BME280;6971;50.028;9.258;2023-08-20T07:19:54;99912.44;;;20.44;100.00
13800;BME280;6971;50.028;9.258;2023-08-20T07:24:55;99916.31;;;20.71;100.00
13800;BME280;6971;50.028;9.258;2023-08-20T07:29:55;99922.88;;;20.98;100.00
13800;BME280;6971;50.028;9.258;2023-08-20T07:34:57;99923.19;;;21.15;100.00
13800;BME280;6971;50.028;9.258;2023-08-20T07:39:57;99924.78;;;21.37;100.00
13800;BME280;6971;50.028;9.258;2023-08-20T07:44:58;99930.09;;;21.67;100.00
13800;BME280;6971;50.028;9.258;2023-08-20T07:49:58;99922.91;;;21.87;100.00
13800;BME280;6971;50.028;9.258;2023-08-20T07:54:59;99911.16;;;21.98;100.00
13800;BME280;6971;50.028;9.258;2023-08-20T08:00:00;99914.06;;;22.15;100.00
13800;BME280;6971;50.028;9.258;2023-08-20T08:05:04;99920.84;;;22.57;100.00
13800;BME280;6971;50.028;9.258;2023-08-20T08:10:05;99930.41;;;22.88;100.00
13800;BME280;6971;50.028;9.258;2023-08-20T08:15:07;99924.63;;;23.29;100.00
13800;BME280;6971;50.028;9.258;2023-08-20T08:20:08;99931.28;;;23.79;100.00
13800;BME280;6971;50.028;9.258;2023-08-20T08:25:08;99934.84;;;23.88;100.00
13800;BME280;6971;50.028;9.258;2023-08-20T08:30:10;99943.56;;;24.08;100.00
13800;BME280;6971;50.028;9.258;2023-08-20T08:35:10;99947.44;;;24.32;100.00
13800;BME280;6971;50.028;9.258;2023-08-20T08:40:11;99941.66;;;26.13;100.00
13800;BME280;6971;50.028;9.258;2023-08-20T08:45:13;99942.50;;;27.34;100.00
13800;BME280;6971;50.028;9.258;2023-08-20T08:50:14;99947.81;;;28.19;90.89
13800;BME280;6971;50.028;9.258;2023-08-20T08:55:14;99936.44;;;28.09;87.87
13800;BME280;6971;50.028;9.258;2023-08-20T09:00:16;99952.78;;;28.46;83.32
13800;BME280;6971;50.028;9.258;2023-08-20T09:05:17;99940.59;;;28.72;82.59
13800;BME280;6971;50.028;9.258;2023-08-20T09:10:17;99939.94;;;28.85;84.88
13800;BME280;6971;50.028;9.258;2023-08-20T09:15:18;99945.53;;;28.98;81.20
13800;BME280;6971;50.028;9.258;2023-08-20T09:20:34;99946.31;;;29.36;75.61
13800;BME280;6971;50.028;9.258;2023-08-20T09:25:34;99958.28;;;29.41;77.03
13800;BME280;6971;50.028;9.258;2023-08-20T09:30:35;99958.19;;;30.07;72.00
13800;BME280;6971;50.028;9.258;2023-08-20T09:35:37;99965.41;;;30.57;68.00
13800;BME280;6971;50.028;9.258;2023-08-20T09:40:38;99967.50;;;30.19;71.64
13800;BME280;6971;50.028;9.258;2023-08-20T09:45:40;99960.41;;;30.25;69.58
13800;BME280;6971;50.028;9.258;2023-08-20T09:50:42;99955.34;;;30.51;71.13
13800;BME280;6971;50.028;9.258;2023-08-20T09:55:45;99957.81;;;31.01;66.38
13800;BME280;6971;50.028;9.258;2023-08-20T10:00:50;99961.06;;;30.27;69.11
13800;BME280;6971;50.028;9.258;2023-08-20T10:05:52;99961.94;;;30.34;69.65
13800;BME280;6971;50.028;9.258;2023-08-20T10:10:54;99958.53;;;31.30;65.33
13800;BME280;6971;50.028;9.258;2023-08-20T10:15:54;99956.22;;;30.65;67.46
13800;BME280;6971;50.028;9.258;2023-08-20T10:20:57;99952.56;;;30.08;74.81
13800;BME280;6971;50.028;9.258;2023-08-20T10:26:10;99953.59;;;30.07;69.62
13800;BME280;6971;50.028;9.258;2023-08-20T10:31:12;99952.00;;;30.55;68.54
13800;BME280;6971;50.028;9.258;2023-08-20T10:36:16;99952.50;;;30.72;66.19
13800;BME280;6971;50.028;9.258;2023-08-20T10:41:24;99942.25;;;29.25;69.36
13800;BME280;6971;50.028;9.258;2023-08-20T10:46:27;99948.50;;;30.61;69.28
13800;BME280;6971;50.028;9.258;2023-08-20T10:51:36;99944.00;;;30.96;64.12
13800;BME280;6971;50.028;9.258;2023-08-20T10:56:47;99945.69;;;30.97;64.39
13800;BME280;6971;50.028;9.258;2023-08-20T11:01:54;99948.31;;;31.80;63.25
13800;BME280;6971;50.028;9.258;2023-08-20T11:06:57;99941.09;;;30.48;64.01
13800;BME280;6971;50.028;9.258;2023-08-20T11:11:58;99939.31;;;31.38;62.03
13800;BME280;6971;50.028;9.258;2023-08-20T11:16:59;99928.25;;;29.65;67.50
13800;BME280;6971;50.028;9.258;2023-08-20T11:21:59;99933.78;;;30.49;64.86
13800;BME280;6971;50.028;9.258;2023-08-20T11:27:00;99930.59;;;30.87;67.03
13800;BME280;6971;50.028;9.258;2023-08-20T11:32:01;99945.13;;;31.22;60.93
13800;BME280;6971;50.028;9.258;2023-08-20T11:37:04;99941.53;;;32.29;60.05
13800;BME280;6971;50.028;9.258;2023-08-20T11:42:05;99943.28;;;31.83;60.31
13800;BME280;6971;50.028;9.258;2023-08-20T11:47:15;99948.22;;;32.47;58.28
13800;BME280;6971;50.028;9.258;2023-08-20T11:52:18;99944.19;;;32.95;57.78
13800;BME280;6971;50.028;9.258;2023-08-20T11:57:18;99943.16;;;32.51;54.83
13800;BME280;6971;50.028;9.258;2023-08-20T12:02:26;99944.88;;;32.91;55.16
13800;BME280;6971;50.028;9.258;2023-08-20T12:07:29;99946.22;;;33.71;51.69
13800;BME280;6971;50.028;9.258;2023-08-20T12:12:30;99938.78;;;33.53;52.66
13800;BME280;6971;50.028;9.258;2023-08-20T12:17:30;99939.56;;;32.64;54.59
13800;BME280;6971;50.028;9.258;2023-08-20T12:22:30;99926.38;;;33.00;52.72
13800;BME280;6971;50.028;9.258;2023-08-20T12:27:31;99927.28;;;33.44;53.43
13800;BME280;6971;50.028;9.258;2023-08-20T12:32:31;99928.09;;;33.52;50.24
13800;BME280;6971;50.028;9.258;2023-08-20T12:37:32;99917.91;;;33.08;52.84
13800;BME280;6971;50.028;9.258;2023-08-20T12:42:33;99916.84;;;33.41;52.21
13800;BME280;6971;50.028;9.258;2023-08-20T12:47:34;99908.97;;;33.52;53.62
13800;BME280;6971;50.028;9.258;2023-08-20T12:52:34;99922.09;;;32.72;53.14
13800;BME280;6971;50.028;9.258;2023-08-20T12:57:35;99912.47;;;32.69;53.55
13800;BME280;6971;50.028;9.258;2023-08-20T13:02:37;99914.19;;;32.56;53.90
13800;BME280;6971;50.028;9.258;2023-08-20T13:07:37;99916.28;;;32.61;54.09
13800;BME280;6971;50.028;9.258;2023-08-20T13:12:41;99907.13;;;32.81;53.33
13800;BME280;6971;50.028;9.258;2023-08-20T13:17:42;99905.38;;;32.54;53.66
13800;BME280;6971;50.028;9.258;2023-08-20T13:22:42;99905.06;;;32.24;54.33
13800;BME280;6971;50.028;9.258;2023-08-20T13:27:44;99905.56;;;31.80;53.64
13800;BME280;6971;50.028;9.258;2023-08-20T13:32:44;99901.78;;;31.88;53.55
13800;BME280;6971;50.028;9.258;2023-08-20T13:37:45;99898.84;;;31.22;53.84
13800;BME280;6971;50.028;9.258;2023-08-20T13:42:45;99895.94;;;31.57;52.82
13800;BME280;6971;50.028;9.258;2023-08-20T13:47:46;99898.22;;;31.87;52.81
13800;BME280;6971;50.028;9.258;2023-08-20T13:52:46;99899.22;;;32.13;51.97
13800;BME280;6971;50.028;9.258;2023-08-20T13:57:46;99889.19;;;32.00;51.40
13800;BME280;6971;50.028;9.258;2023-08-20T14:02:47;99896.97;;;31.90;51.70
13800;BME280;6971;50.028;9.258;2023-08-20T14:07:48;99885.59;;;32.13;52.31
13800;BME280;6971;50.028;9.258;2023-08-20T14:12:49;99888.16;;;31.74;51.18
13800;BME280;6971;50.028;9.258;2023-08-20T14:17:49;99884.66;;;31.47;51.88
13800;BME280;6971;50.028;9.258;2023-08-20T14:22:50;99888.41;;;31.66;50.46
13800;BME280;6971;50.028;9.258;2023-08-20T14:27:50;99881.28;;;31.58;51.17
13800;BME280;6971;50.028;9.258;2023-08-20T14:32:51;99883.78;;;31.67;51.00
13800;BME280;6971;50.028;9.258;2023-08-20T14:37:53;99883.38;;;31.29;52.43
13800;BME280;6971;50.028;9.258;2023-08-20T14:42:54;99877.25;;;31.00;50.61
13800;BME280;6971;50.028;9.258;2023-08-20T14:47:55;99887.59;;;31.38;50.57
13800;BME280;6971;50.028;9.258;2023-08-20T14:52:55;99879.56;;;31.84;50.93
13800;BME280;6971;50.028;9.258;2023-08-20T14:57:56;99867.66;;;31.51;49.21
13800;BME280;6971;50.028;9.258;2023-08-20T15:02:56;99871.44;;;31.57;51.43
13800;BME280;6971;50.028;9.258;2023-08-20T15:07:56;99859.47;;;31.24;53.32
13800;BME280;6971;50.028;9.258;2023-08-20T15:12:57;99868.31;;;31.54;50.70
13800;BME280;6971;50.028;9.258;2023-08-20T15:17:57;99869.59;;;31.37;51.62
13800;BME280;6971;50.028;9.258;2023-08-20T15:22:58;99868.69;;;31.30;50.60
13800;BME280;6971;50.028;9.258;2023-08-20T15:27:58;99863.06;;;31.11;51.59
13800;BME280;6971;50.028;9.258;2023-08-20T15:32:59;99867.84;;;31.16;51.83
13800;BME280;6971;50.028;9.258;2023-08-20T15:38:00;99863.66;;;31.00;51.63
13800;BME280;6971;50.028;9.258;2023-08-20T15:43:00;99868.69;;;30.96;53.23
13800;BME280;6971;50.028;9.258;2023-08-20T15:48:01;99863.63;;;30.86;49.75
13800;BME280;6971;50.028;9.258;2023-08-20T15:53:01;99856.09;;;30.75;52.23
13800;BME280;6971;50.028;9.258;2023-08-20T15:58:03;99854.88;;;30.84;51.71
13800;BME280;6971;50.028;9.258;2023-08-20T16:03:04;99860.13;;;30.93;53.48
13800;BME280;6971;50.028;9.258;2023-08-20T16:08:05;99852.75;;;30.73;53.76
13800;BME280;6971;50.028;9.258;2023-08-20T16:13:05;99849.69;;;30.41;54.02
13800;BME280;6971;50.028;9.258;2023-08-20T16:18:06;99848.22;;;30.38;57.32
13800;BME280;6971;50.028;9.258;2023-08-20T16:23:08;99850.66;;;30.19;56.48
13800;BME280;6971;50.028;9.258;2023-08-20T16:28:09;99843.34;;;29.84;60.69
13800;BME280;6971;50.028;9.258;2023-08-20T16:33:11;99849.84;;;29.90;64.09
13800;BME280;6971;50.028;9.258;2023-08-20T16:38:12;99850.06;;;29.89;65.45
13800;BME280;6971;50.028;9.258;2023-08-20T16:43:12;99843.41;;;29.63;65.89
13800;BME280;6971;50.028;9.258;2023-08-20T16:48:13;99839.06;;;29.40;69.54
13800;BME280;6971;50.028;9.258;2023-08-20T16:53:13;99845.38;;;28.97;71.79
13800;BME280;6971;50.028;9.258;2023-08-20T16:58:15;99838.44;;;28.72;75.39
13800;BME280;6971;50.028;9.258;2023-08-20T17:03:15;99839.28;;;28.36;77.48
13800;BME280;6971;50.028;9.258;2023-08-20T17:08:16;99837.88;;;28.25;78.54
13800;BME280;6971;50.028;9.258;2023-08-20T17:13:16;99839.97;;;27.78;81.89
13800;BME280;6971;50.028;9.258;2023-08-20T17:18:17;99837.63;;;27.74;85.09
13800;BME280;6971;50.028;9.258;2023-08-20T17:23:18;99835.66;;;27.30;88.58
13800;BME280;6971;50.028;9.258;2023-08-20T17:28:19;99837.25;;;27.01;94.27
13800;BME280;6971;50.028;9.258;2023-08-20T17:33:20;99827.53;;;26.59;100.00
13800;BME280;6971;50.028;9.258;2023-08-20T17:38:20;99830.22;;;26.36;100.00
13800;BME280;6971;50.028;9.258;2023-08-20T17:43:23;99826.94;;;26.09;100.00
13800;BME280;6971;50.028;9.258;2023-08-20T17:48:24;99831.78;;;25.74;100.00
13800;BME280;6971;50.028;9.258;2023-08-20T17:53:25;99829.41;;;25.46;100.00
13800;BME280;6971;50.028;9.258;2023-08-20T17:58:26;99827.44;;;25.14;100.00
13800;BME280;6971;50.028;9.258;2023-08-20T18:03:27;99832.78;;;24.81;100.00
13800;BME280;6971;50.028;9.258;2023-08-20T18:08:27;99833.03;;;24.53;100.00
13800;BME280;6971;50.028;9.258;2023-08-20T18:13:28;99832.44;;;24.24;100.00
13800;BME280;6971;50.028;9.258;2023-08-20T18:18:28;99834.50;;;23.96;100.00
13800;BME280;6971;50.028;9.258;2023-08-20T18:23:30;99837.06;;;23.71;100.00
13800;BME280;6971;50.028;9.258;2023-08-20T18:28:30;99837.31;;;23.59;100.00
13800;BME280;6971;50.028;9.258;2023-08-20T18:33:31;99839.19;;;23.23;100.00
13800;BME280;6971;50.028;9.258;2023-08-20T18:43:33;99852.94;;;22.65;100.00
13800;BME280;6971;50.028;9.258;2023-08-20T18:48:34;99861.41;;;22.42;100.00
13800;BME280;6971;50.028;9.258;2023-08-20T18:53:35;99871.53;;;22.20;100.00
13800;BME280;6971;50.028;9.258;2023-08-20T18:58:37;99879.66;;;22.00;100.00
13800;BME280;6971;50.028;9.258;2023-08-20T19:03:38;99885.88;;;21.91;100.00
13800;BME280;6971;50.028;9.258;2023-08-20T19:08:38;99891.19;;;21.73;100.00
13800;BME280;6971;50.028;9.258;2023-08-20T19:13:39;99894.84;;;21.62;100.00
13800;BME280;6971;50.028;9.258;2023-08-20T19:18:39;99903.44;;;21.56;100.00
13800;BME280;6971;50.028;9.258;2023-08-20T19:23:40;99895.56;;;21.44;100.00
13800;BME280;6971;50.028;9.258;2023-08-20T19:28:42;99907.81;;;21.37;100.00
13800;BME280;6971;50.028;9.258;2023-08-20T19:33:44;99902.75;;;21.24;100.00
13800;BME280;6971;50.028;9.258;2023-08-20T19:38:44;99901.34;;;21.10;100.00
13800;BME280;6971;50.028;9.258;2023-08-20T19:43:44;99895.28;;;20.98;100.00
13800;BME280;6971;50.028;9.258;2023-08-20T19:48:46;99909.19;;;20.92;100.00
13800;BME280;6971;50.028;9.258;2023-08-20T19:53:47;99910.56;;;20.76;100.00
13800;BME280;6971;50.028;9.258;2023-08-20T19:58:47;99913.38;;;20.74;100.00
13800;BME280;6971;50.028;9.258;2023-08-20T20:03:48;99911.97;;;20.70;100.00
13800;BME280;6971;50.028;9.258;2023-08-20T20:08:49;99920.81;;;20.61;100.00
13800;BME280;6971;50.028;9.258;2023-08-20T20:13:49;99920.63;;;20.53;100.00
13800;BME280;6971;50.028;9.258;2023-08-20T20:18:51;99917.09;;;20.42;100.00
13800;BME280;6971;50.028;9.258;2023-08-20T20:23:52;99925.50;;;20.38;100.00
13800;BME280;6971;50.028;9.258;2023-08-20T20:28:52;99921.41;;;20.33;100.00
13800;BME280;6971;50.028;9.258;2023-08-20T20:33:53;99925.75;;;20.25;100.00
13800;BME280;6971;50.028;9.258;2023-08-20T20:38:54;99932.56;;;20.07;100.00
13800;BME280;6971;50.028;9.258;2023-08-20T20:43:54;99935.53;;;19.93;100.00
13800;BME280;6971;50.028;9.258;2023-08-20T20:48:55;99949.31;;;19.88;100.00
13800;BME280;6971;50.028;9.258;2023-08-20T20:53:55;99943.91;;;19.78;100.00
13800;BME280;6971;50.028;9.258;2023-08-20T20:58:56;99939.41;;;19.79;100.00
13800;BME280;6971;50.028;9.258;2023-08-20T21:03:57;99937.91;;;19.65;100.00
13800;BME280;6971;50.028;9.258;2023-08-20T21:08:57;99954.06;;;19.63;100.00
13800;BME280;6971;50.028;9.258;2023-08-20T21:13:58;99953.59;;;19.58;100.00
13800;BME280;6971;50.028;9.258;2023-08-20T21:19:00;99955.22;;;19.49;100.00
13800;BME280;6971;50.028;9.258;2023-08-20T21:24:01;99956.59;;;19.43;100.00
13800;BME280;6971;50.028;9.258;2023-08-20T21:29:03;99955.97;;;19.40;100.00
13800;BME280;6971;50.028;9.258;2023-08-20T21:34:03;99957.53;;;19.42;100.00
13800;BME280;6971;50.028;9.258;2023-08-20T21:39:04;99955.63;;;19.33;100.00
13800;BME280;6971;50.028;9.258;2023-08-20T21:44:04;99959.06;;;19.35;100.00
13800;BME280;6971;50.028;9.258;2023-08-20T21:49:05;99961.25;;;19.30;100.00
13800;BME280;6971;50.028;9.258;2023-08-20T21:54:05;99956.75;;;19.30;100.00
13800;BME280;6971;50.028;9.258;2023-08-20T21:59:05;99958.31;;;19.33;100.00
13800;BME280;6971;50.028;9.258;2023-08-20T22:04:06;99960.75;;;19.36;100.00
13800;BME280;6971;50.028;9.258;2023-08-20T22:09:07;99962.94;;;19.31;100.00
13800;BME280;6971;50.028;9.258;2023-08-20T22:14:08;99959.66;;;19.27;100.00
13800;BME280;6971;50.028;9.258;2023-08-20T22:19:09;99967.56;;;19.29;100.00
13800;BME280;6971;50.028;9.258;2023-08-20T22:24:11;99968.78;;;19.25;100.00
13800;BME280;6971;50.028;9.258;2023-08-20T22:29:12;99963.72;;;19.22;100.00
13800;BME280;6971;50.028;9.258;2023-08-20T22:34:12;99965.53;;;19.21;100.00
13800;BME280;6971;50.028;9.258;2023-08-20T22:39:13;99968.19;;;19.21;100.00
13800;BME280;6971;50.028;9.258;2023-08-20T22:44:13;99965.41;;;19.11;100.00
13800;BME280;6971;50.028;9.258;2023-08-20T22:49:14;99963.84;;;19.09;100.00
13800;BME280;6971;50.028;9.258;2023-08-20T22:54:15;99959.63;;;19.06;100.00
13800;BME280;6971;50.028;9.258;2023-08-20T22:59:15;99960.81;;;19.02;100.00
13800;BME280;6971;50.028;9.258;2023-08-20T23:04:16;99967.97;;;19.01;100.00
13800;BME280;6971;50.028;9.258;2023-08-20T23:09:17;99957.66;;;18.97;100.00
13800;BME280;6971;50.028;9.258;2023-08-20T23:14:17;99963.00;;;18.85;100.00
13800;BME280;6971;50.028;9.258;2023-08-20T23:19:18;99956.84;;;18.85;100.00
13800;BME280;6971;50.028;9.258;2023-08-20T23:24:18;99952.31;;;18.85;100.00
13800;BME280;6971;50.028;9.258;2023-08-20T23:29:19;99948.13;;;18.71;100.00
13800;BME280;6971;50.028;9.258;2023-08-20T23:34:19;99956.38;;;18.68;100.00
13800;BME280;6971;50.028;9.258;2023-08-20T23:39:20;99954.44;;;18.70;100.00
13800;BME280;6971;50.028;9.258;2023-08-20T23:44:20;99954.69;;;18.67;100.00
13800;BME280;6971;50.028;9.258;2023-08-20T23:49:20;99962.81;;;18.65;100.00
13800;BME280;6971;50.028;9.258;2023-08-20T23:54:22;99961.09;;;18.64;100.00
13800;BME280;6971;50.028;9.258;2023-08-20T23:59:23;99949.22;;;18.57;100.00
